Řízení letového provozu České republiky
Letiste: LKNA Aktualizace: 20.10.2018 23:01:06  UTC
 METAR LKNA 20.10. 23:00 ...
METAR LKNA 202300Z 31003KT 280V340 CAVOK 04/M01 Q1027 RMK BLU=
 TAF LKNA 20.10. 17:00 ...
TAF LKNA 201700Z 2018/2118 32008KT CAVOK      BECMG 2100/2102 9999 BKN025      TEMPO 2105/2110 5000 -RA BR BKN015      BECMG 2110/2112 03006KT      BECMG 2114/2116 CAVOK=